createdAt,value
2023-05-13T00:01:41.967Z,6.68
2023-05-13T00:04:09.270Z,7.53
2023-05-13T00:06:36.089Z,7.80
2023-05-13T00:09:04.023Z,7.35
2023-05-13T00:11:30.743Z,7.78
2023-05-13T00:13:57.745Z,7.82
2023-05-13T00:16:27.904Z,7.97
2023-05-13T00:18:55.705Z,7.68
2023-05-13T00:21:23.426Z,7.93
2023-05-13T00:23:50.370Z,7.22
2023-05-13T00:26:17.281Z,8.32
2023-05-13T00:28:44.100Z,8.00
2023-05-13T00:31:10.821Z,8.18
2023-05-13T00:33:37.533Z,8.20
2023-05-13T00:36:04.528Z,8.30
2023-05-13T00:38:31.174Z,7.75
2023-05-13T00:40:57.929Z,7.95
2023-05-13T00:43:24.740Z,8.10
2023-05-13T00:45:51.366Z,8.00
2023-05-13T00:48:18.385Z,7.60
2023-05-13T00:50:45.300Z,8.60
2023-05-13T00:53:13.076Z,8.15
2023-05-13T00:55:44.317Z,7.85
2023-05-13T00:58:11.544Z,8.40
2023-05-13T01:00:47.918Z,8.05
2023-05-13T01:03:22.251Z,7.75
2023-05-13T01:06:15.363Z,8.25
2023-05-13T01:09:02.312Z,8.57
2023-05-13T01:11:32.281Z,8.30
2023-05-13T01:14:08.424Z,8.20
2023-05-13T01:16:43.108Z,8.02
2023-05-13T01:19:28.405Z,7.78
2023-05-13T01:21:56.911Z,7.88
2023-05-13T01:24:23.669Z,8.13
2023-05-13T01:26:51.398Z,8.30
2023-05-13T01:29:18.260Z,7.90
2023-05-13T01:31:46.977Z,7.55
2023-05-13T01:34:15.056Z,7.35
2023-05-13T01:36:41.950Z,7.78
2023-05-13T01:39:09.979Z,8.00
2023-05-13T01:41:36.615Z,8.35
2023-05-13T01:44:04.109Z,8.55
2023-05-13T01:46:31.259Z,7.72
2023-05-13T01:48:57.955Z,8.00
2023-05-13T01:51:24.885Z,8.15
2023-05-13T01:53:51.764Z,8.20
2023-05-13T01:56:18.410Z,7.75
2023-05-13T01:58:45.170Z,8.48
2023-05-13T02:01:12.371Z,8.48
2023-05-13T02:03:39.169Z,8.35
2023-05-13T02:06:06.095Z,8.05
2023-05-13T02:08:32.805Z,8.48
2023-05-13T02:11:00.809Z,8.27
2023-05-13T02:13:27.549Z,8.52
2023-05-13T02:15:55.033Z,7.95
2023-05-13T02:18:22.321Z,8.20
2023-05-13T02:20:49.238Z,8.85
2023-05-13T02:23:17.154Z,8.02
2023-05-13T02:25:44.344Z,7.85
2023-05-13T02:28:11.064Z,8.50
2023-05-13T02:30:37.768Z,8.55
2023-05-13T02:33:04.440Z,8.48
2023-05-13T02:35:31.128Z,8.50
2023-05-13T02:37:58.268Z,8.25
2023-05-13T02:40:25.229Z,8.65
2023-05-13T02:42:51.820Z,8.80
2023-05-13T02:45:19.071Z,8.52
2023-05-13T02:47:46.174Z,9.30
2023-05-13T02:50:13.359Z,8.75
2023-05-13T02:52:40.135Z,8.00
2023-05-13T02:55:07.804Z,8.25
2023-05-13T02:57:34.602Z,8.77
2023-05-13T03:00:01.356Z,7.93
2023-05-13T03:02:28.426Z,9.20
2023-05-13T03:04:56.453Z,8.10
2023-05-13T03:07:24.473Z,8.60
2023-05-13T03:09:51.209Z,8.88
2023-05-13T03:12:17.897Z,8.38
2023-05-13T03:14:44.577Z,8.68
2023-05-13T03:17:11.577Z,8.52
2023-05-13T03:19:38.985Z,8.45
2023-05-13T03:22:06.488Z,9.25
2023-05-13T03:24:33.380Z,9.32
2023-05-13T03:27:00.922Z,9.00
2023-05-13T03:29:27.553Z,8.90
2023-05-13T03:31:54.524Z,9.02
2023-05-13T03:34:21.252Z,8.98
2023-05-13T03:36:48.009Z,9.10
2023-05-13T03:39:14.582Z,9.60
2023-05-13T03:41:41.397Z,8.82
2023-05-13T03:44:08.127Z,9.77
2023-05-13T03:46:34.878Z,8.82
2023-05-13T03:49:01.582Z,9.00
2023-05-13T03:51:28.246Z,9.30
2023-05-13T03:53:54.895Z,9.07
2023-05-13T03:56:21.646Z,9.65
2023-05-13T03:58:48.419Z,10.25
2023-05-13T04:01:15.138Z,9.20
2023-05-13T04:03:44.223Z,9.23
2023-05-13T04:06:11.363Z,9.32
2023-05-13T04:08:37.949Z,9.50
2023-05-13T04:11:04.565Z,9.90
2023-05-13T04:13:32.747Z,9.45
2023-05-13T04:15:59.328Z,9.15
2023-05-13T04:18:26.108Z,9.40
2023-05-13T04:20:52.776Z,8.60
2023-05-13T04:23:19.926Z,8.52
2023-05-13T04:25:52.326Z,8.63
2023-05-13T04:28:19.553Z,8.85
2023-05-13T04:30:46.687Z,8.20
2023-05-13T04:33:13.786Z,8.52
2023-05-13T04:35:40.525Z,8.75
2023-05-13T04:38:07.781Z,8.82
2023-05-13T04:40:34.432Z,7.75
2023-05-13T04:43:01.280Z,8.32
2023-05-13T04:45:27.903Z,8.35
2023-05-13T04:47:57.594Z,7.55
2023-05-13T04:50:25.570Z,7.65
2023-05-13T04:52:54.678Z,8.07
2023-05-13T04:55:21.736Z,8.68
2023-05-13T04:57:49.210Z,8.60
2023-05-13T05:00:16.320Z,8.15
2023-05-13T05:02:42.988Z,7.78
2023-05-13T05:05:09.872Z,8.23
2023-05-13T05:07:40.293Z,8.15
2023-05-13T05:10:08.536Z,8.10
2023-05-13T05:12:35.288Z,8.43
2023-05-13T05:15:01.911Z,7.82
2023-05-13T05:17:32.462Z,8.18
2023-05-13T05:19:59.694Z,7.50
2023-05-13T05:22:27.336Z,7.25
2023-05-13T05:24:54.116Z,8.73
2023-05-13T05:27:20.979Z,7.97
2023-05-13T05:29:48.048Z,8.18
2023-05-13T05:32:14.712Z,8.20
2023-05-13T05:34:41.445Z,8.05
2023-05-13T05:37:08.105Z,7.55
2023-05-13T05:39:35.331Z,8.32
2023-05-13T05:42:03.255Z,7.85
2023-05-13T05:44:30.036Z,7.57
2023-05-13T05:46:56.655Z,7.60
2023-05-13T05:49:23.392Z,7.28
2023-05-13T05:51:50.151Z,7.28
2023-05-13T05:54:17.020Z,7.63
2023-05-13T05:56:43.902Z,7.10
2023-05-13T05:59:10.723Z,7.40
2023-05-13T06:01:37.469Z,7.10
2023-05-13T06:04:04.515Z,7.10
2023-05-13T06:06:32.357Z,6.90
2023-05-13T06:08:58.996Z,7.05
2023-05-13T06:11:25.745Z,6.40
2023-05-13T06:13:53.600Z,5.95
2023-05-13T06:16:21.175Z,6.82
2023-05-13T06:18:48.619Z,6.50
2023-05-13T06:21:15.256Z,6.05
2023-05-13T06:23:42.412Z,6.40
2023-05-13T06:26:08.960Z,5.88
2023-05-13T06:28:35.632Z,6.10
2023-05-13T06:31:02.369Z,6.03
2023-05-13T06:33:29.162Z,5.70
2023-05-13T06:35:56.322Z,5.65
2023-05-13T06:38:23.774Z,5.50
2023-05-13T06:40:50.388Z,5.47
2023-05-13T06:43:18.028Z,5.68
2023-05-13T06:45:44.641Z,5.57
2023-05-13T06:48:11.933Z,6.00
2023-05-13T06:50:38.601Z,5.50
2023-05-13T06:53:05.168Z,5.03
2023-05-13T06:55:31.883Z,5.15
2023-05-13T06:57:58.988Z,5.30
2023-05-13T07:00:26.639Z,4.95
2023-05-13T07:02:55.072Z,5.13
2023-05-13T07:05:21.820Z,4.93
2023-05-13T07:07:53.615Z,4.80
2023-05-13T07:10:20.380Z,4.50
2023-05-13T07:12:47.226Z,5.03
2023-05-13T07:15:14.101Z,4.30
2023-05-13T07:17:41.281Z,4.65
2023-05-13T07:20:10.016Z,4.97
2023-05-13T07:22:36.604Z,4.72
2023-05-13T07:25:04.652Z,4.60
2023-05-13T07:27:31.217Z,4.35
2023-05-13T07:29:57.945Z,4.72
2023-05-13T07:32:25.787Z,4.68
2023-05-13T07:34:52.436Z,3.90
2023-05-13T07:37:19.155Z,4.20
2023-05-13T07:39:46.217Z,4.57
2023-05-13T07:42:14.159Z,4.72
2023-05-13T07:44:42.772Z,4.13
2023-05-13T07:47:10.356Z,4.20
2023-05-13T07:49:38.132Z,4.50
2023-05-13T07:52:05.022Z,4.55
2023-05-13T07:54:32.024Z,4.63
2023-05-13T07:56:58.557Z,4.30
2023-05-13T07:59:25.142Z,4.25
2023-05-13T08:01:51.868Z,4.32
2023-05-13T08:04:18.677Z,4.65
2023-05-13T08:06:46.273Z,4.32
2023-05-13T08:09:14.104Z,4.30
2023-05-13T08:11:40.672Z,4.00
2023-05-13T08:14:07.314Z,3.67
2023-05-13T08:16:37.372Z,3.85
2023-05-13T08:19:04.807Z,3.50
2023-05-13T08:21:32.550Z,3.65
2023-05-13T08:23:59.402Z,3.30
2023-05-13T08:26:27.000Z,3.47
2023-05-13T08:28:54.935Z,3.03
2023-05-13T08:31:24.152Z,3.65
2023-05-13T08:33:51.737Z,3.60
2023-05-13T08:36:19.199Z,3.60
2023-05-13T08:38:46.101Z,3.60
2023-05-13T08:41:14.424Z,3.08
2023-05-13T08:43:43.972Z,3.20
2023-05-13T08:46:11.982Z,3.33
2023-05-13T08:48:40.941Z,3.15
2023-05-13T08:51:09.038Z,3.38
2023-05-13T08:53:38.655Z,3.13
2023-05-13T08:56:08.901Z,3.38
2023-05-13T08:58:35.707Z,3.42
2023-05-13T09:01:04.895Z,3.22
2023-05-13T09:03:31.965Z,3.25
2023-05-13T09:06:02.092Z,2.97
2023-05-13T09:08:32.028Z,3.00
2023-05-13T09:10:59.728Z,3.78
2023-05-13T09:13:26.384Z,3.20
2023-05-13T09:15:54.462Z,3.75
2023-05-13T09:18:21.451Z,2.83
2023-05-13T09:20:49.660Z,2.83
2023-05-13T09:23:17.914Z,3.58
2023-05-13T09:25:44.561Z,2.95
2023-05-13T09:28:14.550Z,2.70
2023-05-13T09:30:44.524Z,3.15
2023-05-13T09:33:15.893Z,2.88
2023-05-13T09:35:53.055Z,5.15
2023-05-13T09:38:25.664Z,3.30
2023-05-13T09:40:57.464Z,3.55
2023-05-13T09:43:28.147Z,3.05
2023-05-13T09:46:01.559Z,2.85
2023-05-13T09:48:32.368Z,2.80
2023-05-13T09:50:59.904Z,3.00
2023-05-13T09:53:28.585Z,3.42
2023-05-13T09:55:58.128Z,5.63
2023-05-13T09:58:29.073Z,3.33
2023-05-13T10:00:57.009Z,2.90
2023-05-13T10:03:24.793Z,3.13
2023-05-13T10:05:51.821Z,3.45
2023-05-13T10:08:19.673Z,3.03
2023-05-13T10:10:50.639Z,2.90
2023-05-13T10:13:23.523Z,3.50
2023-05-13T10:15:56.405Z,3.05
2023-05-13T10:18:24.295Z,3.20
2023-05-13T10:20:56.181Z,3.05
2023-05-13T10:23:25.056Z,3.03
2023-05-13T10:25:58.076Z,3.05
2023-05-13T10:28:25.595Z,3.17
2023-05-13T10:30:54.176Z,3.05
2023-05-13T10:33:22.919Z,3.78
2023-05-13T10:36:04.826Z,3.03
2023-05-13T10:38:48.053Z,2.83
2023-05-13T10:41:26.744Z,3.22
2023-05-13T10:44:00.701Z,2.85
2023-05-13T10:46:28.509Z,2.78
2023-05-13T10:49:00.418Z,2.78
2023-05-13T10:51:27.320Z,2.83
2023-05-13T10:53:57.908Z,3.00
2023-05-13T10:56:29.081Z,3.67
2023-05-13T10:59:04.189Z,2.80
2023-05-13T11:01:35.110Z,2.90
2023-05-13T11:04:06.084Z,2.92
2023-05-13T11:06:37.432Z,3.05
2023-05-13T11:09:13.570Z,2.58
2023-05-13T11:11:43.712Z,2.75
2023-05-13T11:14:15.031Z,2.95
2023-05-13T11:16:51.787Z,3.38
2023-05-13T11:19:25.533Z,2.85
2023-05-13T11:21:58.953Z,3.03
2023-05-13T11:24:26.825Z,2.72
2023-05-13T11:26:58.882Z,4.90
2023-05-13T11:29:34.443Z,6.63
2023-05-13T11:32:02.972Z,3.60
2023-05-13T11:34:30.845Z,3.03
2023-05-13T11:37:04.746Z,3.25
2023-05-13T11:39:32.118Z,2.88
2023-05-13T11:42:01.972Z,2.78
2023-05-13T11:44:28.749Z,2.75
2023-05-13T11:47:05.871Z,2.63
2023-05-13T11:49:39.462Z,3.15
2023-05-13T11:52:10.450Z,3.03
2023-05-13T11:54:51.284Z,2.90
2023-05-13T11:57:17.781Z,2.67
2023-05-13T12:00:01.325Z,2.67
2023-05-13T12:02:37.331Z,2.47
2023-05-13T12:05:12.110Z,4.43
2023-05-13T12:07:39.702Z,2.60
2023-05-13T12:10:08.477Z,2.40
2023-05-13T12:12:39.430Z,2.70
2023-05-13T12:15:10.598Z,2.67
2023-05-13T12:17:37.860Z,2.50
2023-05-13T12:20:15.001Z,2.97
2023-05-13T12:22:44.575Z,5.90
2023-05-13T12:25:33.305Z,2.30
2023-05-13T12:28:06.185Z,2.55
2023-05-13T12:30:40.775Z,2.50
2023-05-13T12:33:15.103Z,2.58
2023-05-13T12:35:42.386Z,2.25
2023-05-13T12:38:13.733Z,2.72
2023-05-13T12:40:40.346Z,2.50
2023-05-13T12:43:08.204Z,2.17
2023-05-13T12:45:35.122Z,2.85
2023-05-13T12:48:02.164Z,2.60
2023-05-13T12:50:28.809Z,3.17
2023-05-13T12:52:57.538Z,2.80
2023-05-13T12:55:24.274Z,2.33
2023-05-13T12:58:01.428Z,2.42
2023-05-13T13:00:28.208Z,2.53
2023-05-13T13:02:54.994Z,2.85
2023-05-13T13:05:23.593Z,2.63
2023-05-13T13:07:51.335Z,2.72
2023-05-13T13:10:18.418Z,2.50
2023-05-13T13:12:45.166Z,2.63
2023-05-13T13:15:12.140Z,2.40
2023-05-13T13:17:38.865Z,2.22
2023-05-13T13:20:07.380Z,2.28
2023-05-13T13:22:36.860Z,2.88
2023-05-13T13:25:07.299Z,2.88
2023-05-13T13:27:35.172Z,2.78
2023-05-13T13:30:05.863Z,2.60
2023-05-13T13:32:35.387Z,2.88
2023-05-13T13:35:03.475Z,2.00
2023-05-13T13:37:30.757Z,2.67
2023-05-13T13:39:57.293Z,2.20
2023-05-13T13:42:26.761Z,2.30
2023-05-13T13:45:00.448Z,2.28
2023-05-13T13:47:26.988Z,2.60
2023-05-13T13:49:53.586Z,2.28
2023-05-13T13:52:20.309Z,2.50
2023-05-13T13:54:48.712Z,2.22
2023-05-13T13:57:16.629Z,2.28
2023-05-13T13:59:43.304Z,2.20
2023-05-13T14:02:10.018Z,2.38
2023-05-13T14:04:37.339Z,2.80
2023-05-13T14:07:04.304Z,2.20
2023-05-13T14:09:32.709Z,2.78
2023-05-13T14:12:01.643Z,2.60
2023-05-13T14:14:28.759Z,2.88
2023-05-13T14:16:58.289Z,2.65
2023-05-13T14:19:27.600Z,2.38
2023-05-13T14:21:54.370Z,2.13
2023-05-13T14:24:23.018Z,2.45
2023-05-13T14:26:49.787Z,2.50
2023-05-13T14:29:16.370Z,2.30
2023-05-13T14:31:42.977Z,2.67
2023-05-13T14:34:09.562Z,2.30
2023-05-13T14:36:36.305Z,2.60
2023-05-13T14:39:03.146Z,2.72
2023-05-13T14:41:30.188Z,2.60
2023-05-13T14:43:56.800Z,2.72
2023-05-13T14:46:23.559Z,2.33
2023-05-13T14:48:51.737Z,2.17
2023-05-13T14:51:18.753Z,2.40
2023-05-13T14:53:45.611Z,2.38
2023-05-13T14:56:12.458Z,2.30
2023-05-13T14:58:39.131Z,2.20
2023-05-13T15:01:05.747Z,2.28
2023-05-13T15:03:32.716Z,2.03
2023-05-13T15:05:59.363Z,2.50
2023-05-13T15:08:25.942Z,2.08
2023-05-13T15:10:52.538Z,2.58
2023-05-13T15:13:19.304Z,2.50
2023-05-13T15:15:46.234Z,2.08
2023-05-13T15:18:13.820Z,2.67
2023-05-13T15:20:40.436Z,2.22
2023-05-13T15:23:06.947Z,2.20
2023-05-13T15:25:33.793Z,2.38
2023-05-13T15:28:00.366Z,2.55
2023-05-13T15:30:26.953Z,2.20
2023-05-13T15:32:53.524Z,2.40
2023-05-13T15:35:20.347Z,2.40
2023-05-13T15:37:46.971Z,2.10
2023-05-13T15:40:14.989Z,2.50
2023-05-13T15:42:41.573Z,2.20
2023-05-13T15:45:08.514Z,2.40
2023-05-13T15:47:35.937Z,2.30
2023-05-13T15:50:03.837Z,2.20
2023-05-13T15:52:30.514Z,2.05
2023-05-13T15:54:57.041Z,2.10
2023-05-13T15:57:23.599Z,2.40
2023-05-13T15:59:50.254Z,2.53
2023-05-13T16:02:18.345Z,1.90
2023-05-13T16:04:45.273Z,2.05
2023-05-13T16:07:12.035Z,2.22
2023-05-13T16:09:39.828Z,2.22
2023-05-13T16:12:07.120Z,2.70
2023-05-13T16:14:34.158Z,2.17
2023-05-13T16:17:02.071Z,2.15
2023-05-13T16:19:29.118Z,2.42
2023-05-13T16:21:55.896Z,2.00
2023-05-13T16:24:22.638Z,1.88
2023-05-13T16:26:49.423Z,1.90
2023-05-13T16:29:16.121Z,1.88
2023-05-13T16:31:42.840Z,2.00
2023-05-13T16:34:09.451Z,2.47
2023-05-13T16:36:36.096Z,2.20
2023-05-13T16:39:03.225Z,2.05
2023-05-13T16:41:29.866Z,1.75
2023-05-13T16:43:56.856Z,2.08
2023-05-13T16:46:24.163Z,2.00
2023-05-13T16:48:51.582Z,1.70
2023-05-13T16:51:24.864Z,1.92
2023-05-13T16:53:51.602Z,2.70
2023-05-13T16:56:18.642Z,2.20
2023-05-13T16:58:45.558Z,1.92
2023-05-13T17:01:12.820Z,1.98
2023-05-13T17:03:39.629Z,1.80
2023-05-13T17:06:07.591Z,1.90
2023-05-13T17:08:34.823Z,1.95
2023-05-13T17:11:21.563Z,1.83
2023-05-13T17:13:48.484Z,1.95
2023-05-13T17:16:22.086Z,2.00
2023-05-13T17:18:55.899Z,1.80
2023-05-13T17:21:27.044Z,1.77
2023-05-13T17:23:54.050Z,1.98
2023-05-13T17:26:21.891Z,2.10
2023-05-13T17:28:49.589Z,2.40
2023-05-13T17:31:16.918Z,2.30
2023-05-13T17:33:44.077Z,1.95
2023-05-13T17:36:11.182Z,2.15
2023-05-13T17:38:38.112Z,2.33
2023-05-13T17:41:09.586Z,2.47
2023-05-13T17:43:37.256Z,2.20
2023-05-13T17:46:04.324Z,1.90
2023-05-13T17:48:34.365Z,2.00
2023-05-13T17:51:02.506Z,2.00
2023-05-13T17:53:29.933Z,2.25
2023-05-13T17:55:57.430Z,2.45
2023-05-13T17:58:24.810Z,2.65
2023-05-13T18:01:34.333Z,3.13
2023-05-13T18:04:01.188Z,4.18
2023-05-13T18:06:27.983Z,4.38
2023-05-13T18:08:55.092Z,4.38
2023-05-13T18:11:22.173Z,4.13
2023-05-13T18:13:51.731Z,3.50
2023-05-13T18:16:19.650Z,3.47
2023-05-13T18:18:48.904Z,3.30
2023-05-13T18:21:19.680Z,2.50
2023-05-13T18:23:46.820Z,2.33
2023-05-13T18:26:20.053Z,2.72
2023-05-13T18:28:57.015Z,2.28
2023-05-13T18:31:24.202Z,2.50
2023-05-13T18:33:51.467Z,2.28
2023-05-13T18:36:21.790Z,2.40
2023-05-13T18:38:54.738Z,2.30
2023-05-13T18:41:22.795Z,2.00
2023-05-13T18:43:50.509Z,2.47
2023-05-13T18:46:17.718Z,2.65
2023-05-13T18:48:44.652Z,2.22
2023-05-13T18:51:11.929Z,2.67
2023-05-13T18:53:39.058Z,2.10
2023-05-13T18:56:09.338Z,2.25
2023-05-13T18:58:36.834Z,2.50
2023-05-13T19:01:23.508Z,2.53
2023-05-13T19:03:52.161Z,2.28
2023-05-13T19:06:22.101Z,2.25
2023-05-13T19:08:48.981Z,2.10
2023-05-13T19:11:15.722Z,2.10
2023-05-13T19:13:47.356Z,2.40
2023-05-13T19:16:15.350Z,2.33
2023-05-13T19:18:42.226Z,2.00
2023-05-13T19:21:08.943Z,2.15
2023-05-13T19:23:37.215Z,2.15
2023-05-13T19:26:04.113Z,2.80
2023-05-13T19:28:37.148Z,2.20
2023-05-13T19:31:10.494Z,2.38
2023-05-13T19:33:37.383Z,2.10
2023-05-13T19:36:07.508Z,2.63
2023-05-13T19:38:35.065Z,2.92
2023-05-13T19:41:01.832Z,2.80
2023-05-13T19:43:28.538Z,2.65
2023-05-13T19:45:57.367Z,2.63
2023-05-13T19:48:23.988Z,2.35
2023-05-13T19:50:53.229Z,2.50
2023-05-13T19:53:21.426Z,2.70
2023-05-13T19:55:47.997Z,2.50
2023-05-13T19:58:15.334Z,2.92
2023-05-13T20:00:43.874Z,2.97
2023-05-13T20:03:10.981Z,2.67
2023-05-13T20:05:39.261Z,2.90
2023-05-13T20:08:06.269Z,2.47
2023-05-13T20:10:35.128Z,2.90
2023-05-13T20:13:03.557Z,2.50
2023-05-13T20:15:30.885Z,2.63
2023-05-13T20:17:57.612Z,2.72
2023-05-13T20:20:24.535Z,2.78
2023-05-13T20:22:51.234Z,2.75
2023-05-13T20:25:17.945Z,2.80
2023-05-13T20:27:45.068Z,2.83
2023-05-13T20:30:12.348Z,2.78
2023-05-13T20:32:39.113Z,2.90
2023-05-13T20:35:07.478Z,2.65
2023-05-13T20:37:34.500Z,2.67
2023-05-13T20:40:01.073Z,3.10
2023-05-13T20:42:27.632Z,3.10
2023-05-13T20:44:54.232Z,2.92
2023-05-13T20:47:20.947Z,3.50
2023-05-13T20:49:47.556Z,2.90
2023-05-13T20:52:14.434Z,3.22
2023-05-13T20:54:41.133Z,2.97
2023-05-13T20:57:07.687Z,3.22
2023-05-13T20:59:34.497Z,2.95
2023-05-13T21:02:01.528Z,2.55
2023-05-13T21:04:28.270Z,3.05
2023-05-13T21:06:55.099Z,2.85
2023-05-13T21:09:21.699Z,2.97
2023-05-13T21:11:48.420Z,3.38
2023-05-13T21:14:15.363Z,3.05
2023-05-13T21:16:42.511Z,3.50
2023-05-13T21:19:17.644Z,3.92
2023-05-13T21:21:44.355Z,3.53
2023-05-13T21:24:10.983Z,3.85
2023-05-13T21:26:37.590Z,3.88
2023-05-13T21:29:04.174Z,3.70
2023-05-13T21:31:30.939Z,3.92
2023-05-13T21:33:57.615Z,3.47
2023-05-13T21:36:24.279Z,3.65
2023-05-13T21:38:51.637Z,3.58
2023-05-13T21:41:19.948Z,3.63
2023-05-13T21:43:46.669Z,3.78
2023-05-13T21:46:13.417Z,3.40
2023-05-13T21:48:40.902Z,3.17
2023-05-13T21:51:07.584Z,4.13
2023-05-13T21:53:34.539Z,3.30
2023-05-13T21:56:01.320Z,3.17
2023-05-13T21:58:27.987Z,3.60
2023-05-13T22:00:54.616Z,3.45
2023-05-13T22:03:21.401Z,3.00
2023-05-13T22:05:48.329Z,3.25
2023-05-13T22:08:14.942Z,3.47
2023-05-13T22:10:41.570Z,3.72
2023-05-13T22:13:08.621Z,3.58
2023-05-13T22:15:35.853Z,3.72
2023-05-13T22:18:02.722Z,3.65
2023-05-13T22:20:29.589Z,3.63
2023-05-13T22:22:56.118Z,3.58
2023-05-13T22:25:22.718Z,3.95
2023-05-13T22:27:51.018Z,4.10
2023-05-13T22:30:18.396Z,3.65
2023-05-13T22:32:46.215Z,3.75
2023-05-13T22:35:12.859Z,3.40
2023-05-13T22:37:39.435Z,3.88
2023-05-13T22:40:06.790Z,4.32
2023-05-13T22:42:33.402Z,3.90
2023-05-13T22:45:00.121Z,4.30
2023-05-13T22:47:26.865Z,3.78
2023-05-13T22:49:53.457Z,4.30
2023-05-13T22:52:20.208Z,4.13
2023-05-13T22:54:46.782Z,4.38
2023-05-13T22:57:14.502Z,4.00
2023-05-13T22:59:42.429Z,4.60
2023-05-13T23:02:10.211Z,4.50
2023-05-13T23:04:37.253Z,3.90
2023-05-13T23:07:05.211Z,4.43
2023-05-13T23:09:31.750Z,4.43
2023-05-13T23:11:59.029Z,4.45
2023-05-13T23:14:27.528Z,4.63
2023-05-13T23:16:54.873Z,4.40
2023-05-13T23:19:21.461Z,4.30
2023-05-13T23:21:50.711Z,4.72
2023-05-13T23:24:17.637Z,4.40
2023-05-13T23:26:45.852Z,4.50
2023-05-13T23:29:14.473Z,4.57
2023-05-13T23:31:41.817Z,4.70
2023-05-13T23:34:09.322Z,4.70
2023-05-13T23:36:36.236Z,4.43
2023-05-13T23:39:02.981Z,5.22
2023-05-13T23:41:30.125Z,4.53
2023-05-13T23:43:56.654Z,4.60
2023-05-13T23:46:23.462Z,4.93
2023-05-13T23:48:51.346Z,4.97
2023-05-13T23:51:18.394Z,5.18
2023-05-13T23:53:44.946Z,4.60
2023-05-13T23:56:12.557Z,5.32
2023-05-13T23:58:39.133Z,5.20
